Chesterfield Township, Michigan
Current Conditions -  °F | °C
As of 4:14 PM on Thursday 18 Dec 2014 (Local Time) from KMTC Reporting Station
Light Snow Light Snow  
Wind Chill: 30°   Ceiling: 1400
Heat Index: 30°   Visibility: 4mi
Dew Point: 30°   Wind: 3mph
Humidity: 100%   Direction: 20°NNE
Pressure: 30.14"   Gusts: NA
Location:  42.6875°N, 82.8325°W
Report Text: KMTC 182114Z 02003KT 4SM -SG BR SCT008 BKN014 OVC021 M01/M01 A3014
Loading
Personal Weather Stations






























Interactive Weather Map New forecast layout! Learn more

10-Day Weather Forecast

Advertisements
Track Severe Weather on mobile